sensor_id;sensor_type;location;lat;lon;timestamp;temperature;humidity
14985;DHT22;7588;62.368;25.902;2023-03-31T00:01:48;-11.00;99.90
14985;DHT22;7588;62.368;25.902;2023-03-31T00:04:13;-11.20;99.90
14985;DHT22;7588;62.368;25.902;2023-03-31T00:06:41;-11.30;99.90
14985;DHT22;7588;62.368;25.902;2023-03-31T00:09:12;-11.40;99.90
14985;DHT22;7588;62.368;25.902;2023-03-31T00:11:39;-11.50;99.90
14985;DHT22;7588;62.368;25.902;2023-03-31T00:14:06;-11.50;99.90
14985;DHT22;7588;62.368;25.902;2023-03-31T00:16:36;-11.60;99.90
14985;DHT22;7588;62.368;25.902;2023-03-31T00:19:03;-11.60;99.90
14985;DHT22;7588;62.368;25.902;2023-03-31T00:21:29;-11.60;99.90
14985;DHT22;7588;62.368;25.902;2023-03-31T00:24:08;-11.60;99.90
14985;DHT22;7588;62.368;25.902;2023-03-31T00:26:35;-11.70;99.90
14985;DHT22;7588;62.368;25.902;2023-03-31T00:29:02;-11.90;99.90
14985;DHT22;7588;62.368;25.902;2023-03-31T00:31:28;-12.10;99.90
14985;DHT22;7588;62.368;25.902;2023-03-31T00:33:55;-12.20;99.90
14985;DHT22;7588;62.368;25.902;2023-03-31T00:36:21;-12.30;99.90
14985;DHT22;7588;62.368;25.902;2023-03-31T00:39:00;-12.40;99.90
14985;DHT22;7588;62.368;25.902;2023-03-31T00:41:34;-12.50;99.90
14985;DHT22;7588;62.368;25.902;2023-03-31T00:44:08;-12.50;99.90
14985;DHT22;7588;62.368;25.902;2023-03-31T00:46:54;-12.50;99.90
14985;DHT22;7588;62.368;25.902;2023-03-31T00:49:26;-12.50;99.90
14985;DHT22;7588;62.368;25.902;2023-03-31T00:54:58;-12.60;99.90
14985;DHT22;7588;62.368;25.902;2023-03-31T00:57:26;-12.70;99.90
14985;DHT22;7588;62.368;25.902;2023-03-31T00:59:57;-12.70;99.90
14985;DHT22;7588;62.368;25.902;2023-03-31T01:02:23;-12.80;99.90
14985;DHT22;7588;62.368;25.902;2023-03-31T01:04:55;-12.80;99.90
14985;DHT22;7588;62.368;25.902;2023-03-31T01:07:34;-12.80;99.90
14985;DHT22;7588;62.368;25.902;2023-03-31T01:10:03;-12.80;99.90
14985;DHT22;7588;62.368;25.902;2023-03-31T01:12:31;-12.80;99.90
14985;DHT22;7588;62.368;25.902;2023-03-31T01:14:59;-12.90;99.90
14985;DHT22;7588;62.368;25.902;2023-03-31T01:17:26;-13.00;99.90
14985;DHT22;7588;62.368;25.902;2023-03-31T01:20:00;-13.00;99.90
14985;DHT22;7588;62.368;25.902;2023-03-31T01:33:31;-13.40;99.90
14985;DHT22;7588;62.368;25.902;2023-03-31T01:41:40;-13.50;99.90
14985;DHT22;7588;62.368;25.902;2023-03-31T01:44:36;-13.50;99.90
14985;DHT22;7588;62.368;25.902;2023-03-31T01:47:18;-13.50;99.90
14985;DHT22;7588;62.368;25.902;2023-03-31T01:52:37;-13.60;99.90
14985;DHT22;7588;62.368;25.902;2023-03-31T01:55:19;-13.50;99.90
14985;DHT22;7588;62.368;25.902;2023-03-31T01:58:02;-13.60;99.90
14985;DHT22;7588;62.368;25.902;2023-03-31T02:00:35;-13.70;99.90
14985;DHT22;7588;62.368;25.902;2023-03-31T02:03:09;-13.80;99.90
14985;DHT22;7588;62.368;25.902;2023-03-31T02:05:42;-13.90;99.90
14985;DHT22;7588;62.368;25.902;2023-03-31T02:08:21;-14.00;99.90
14985;DHT22;7588;62.368;25.902;2023-03-31T02:10:48;-14.00;99.90
14985;DHT22;7588;62.368;25.902;2023-03-31T02:13:15;-14.10;99.90
14985;DHT22;7588;62.368;25.902;2023-03-31T02:15:46;-14.10;99.90
14985;DHT22;7588;62.368;25.902;2023-03-31T02:18:15;-14.10;99.90
14985;DHT22;7588;62.368;25.902;2023-03-31T02:20:46;-14.10;99.90
14985;DHT22;7588;62.368;25.902;2023-03-31T02:23:14;-14.10;99.90
14985;DHT22;7588;62.368;25.902;2023-03-31T02:25:50;-14.20;99.90
14985;DHT22;7588;62.368;25.902;2023-03-31T02:28:23;-14.20;99.90
14985;DHT22;7588;62.368;25.902;2023-03-31T02:33:34;-14.30;99.90
14985;DHT22;7588;62.368;25.902;2023-03-31T02:36:01;-14.40;99.90
14985;DHT22;7588;62.368;25.902;2023-03-31T02:38:27;-14.40;99.90
14985;DHT22;7588;62.368;25.902;2023-03-31T02:40:55;-14.40;99.90
14985;DHT22;7588;62.368;25.902;2023-03-31T02:43:21;-14.40;99.90
14985;DHT22;7588;62.368;25.902;2023-03-31T02:45:49;-14.40;99.90
14985;DHT22;7588;62.368;25.902;2023-03-31T02:48:25;-14.50;99.90
14985;DHT22;7588;62.368;25.902;2023-03-31T03:15:43;-15.00;99.90
14985;DHT22;7588;62.368;25.902;2023-03-31T03:18:11;-15.10;99.90
14985;DHT22;7588;62.368;25.902;2023-03-31T03:20:37;-15.10;99.90
14985;DHT22;7588;62.368;25.902;2023-03-31T03:23:03;-15.20;99.90
14985;DHT22;7588;62.368;25.902;2023-03-31T03:25:29;-15.20;99.90
14985;DHT22;7588;62.368;25.902;2023-03-31T03:27:55;-15.20;99.90
14985;DHT22;7588;62.368;25.902;2023-03-31T03:30:21;-15.30;99.90
14985;DHT22;7588;62.368;25.902;2023-03-31T03:32:47;-15.30;99.90
14985;DHT22;7588;62.368;25.902;2023-03-31T03:35:12;-15.30;99.90
14985;DHT22;7588;62.368;25.902;2023-03-31T03:37:38;-15.30;99.90
14985;DHT22;7588;62.368;25.902;2023-03-31T03:40:04;-15.40;99.90
14985;DHT22;7588;62.368;25.902;2023-03-31T03:42:32;-15.40;99.90
14985;DHT22;7588;62.368;25.902;2023-03-31T03:44:57;-15.40;99.90
14985;DHT22;7588;62.368;25.902;2023-03-31T03:47:23;-15.40;99.90
14985;DHT22;7588;62.368;25.902;2023-03-31T03:49:49;-15.40;99.90
14985;DHT22;7588;62.368;25.902;2023-03-31T03:52:15;-15.40;99.90
14985;DHT22;7588;62.368;25.902;2023-03-31T03:54:41;-15.50;99.90
14985;DHT22;7588;62.368;25.902;2023-03-31T03:57:07;-15.50;99.90
14985;DHT22;7588;62.368;25.902;2023-03-31T03:59:32;-15.50;99.90
14985;DHT22;7588;62.368;25.902;2023-03-31T04:01:58;-15.50;99.90
14985;DHT22;7588;62.368;25.902;2023-03-31T04:04:24;-15.50;99.90
14985;DHT22;7588;62.368;25.902;2023-03-31T04:06:49;-15.50;99.90
14985;DHT22;7588;62.368;25.902;2023-03-31T04:09:15;-15.50;99.90
14985;DHT22;7588;62.368;25.902;2023-03-31T04:11:41;-15.50;99.90
14985;DHT22;7588;62.368;25.902;2023-03-31T04:14:06;-15.50;99.90
14985;DHT22;7588;62.368;25.902;2023-03-31T04:16:32;-15.50;99.90
14985;DHT22;7588;62.368;25.902;2023-03-31T04:18:59;-15.50;99.90
14985;DHT22;7588;62.368;25.902;2023-03-31T04:21:30;-15.50;99.90
14985;DHT22;7588;62.368;25.902;2023-03-31T04:23:59;-15.50;99.90
14985;DHT22;7588;62.368;25.902;2023-03-31T04:26:33;-15.50;99.90
14985;DHT22;7588;62.368;25.902;2023-03-31T04:29:09;-15.50;99.90
14985;DHT22;7588;62.368;25.902;2023-03-31T04:31:37;-15.50;99.90
14985;DHT22;7588;62.368;25.902;2023-03-31T04:34:10;-15.40;99.90
14985;DHT22;7588;62.368;25.902;2023-03-31T04:36:45;-15.40;99.90
14985;DHT22;7588;62.368;25.902;2023-03-31T04:39:18;-15.40;99.90
14985;DHT22;7588;62.368;25.902;2023-03-31T04:41:56;-15.30;99.90
14985;DHT22;7588;62.368;25.902;2023-03-31T04:44:22;-15.30;99.90
14985;DHT22;7588;62.368;25.902;2023-03-31T04:46:48;-15.30;99.90
14985;DHT22;7588;62.368;25.902;2023-03-31T04:49:14;-15.20;99.90
14985;DHT22;7588;62.368;25.902;2023-03-31T04:51:40;-15.10;99.90
14985;DHT22;7588;62.368;25.902;2023-03-31T04:54:06;-15.10;99.90
14985;DHT22;7588;62.368;25.902;2023-03-31T04:56:31;-15.00;99.90
14985;DHT22;7588;62.368;25.902;2023-03-31T04:58:58;-14.80;99.90
14985;DHT22;7588;62.368;25.902;2023-03-31T05:01:24;-14.80;99.90
14985;DHT22;7588;62.368;25.902;2023-03-31T05:03:49;-14.70;99.90
14985;DHT22;7588;62.368;25.902;2023-03-31T05:06:16;-14.60;99.90
14985;DHT22;7588;62.368;25.902;2023-03-31T05:08:42;-14.50;99.90
14985;DHT22;7588;62.368;25.902;2023-03-31T05:11:08;-14.40;99.90
14985;DHT22;7588;62.368;25.902;2023-03-31T05:13:34;-14.30;99.90
14985;DHT22;7588;62.368;25.902;2023-03-31T05:16:11;-14.20;99.90
14985;DHT22;7588;62.368;25.902;2023-03-31T05:18:40;-14.10;99.90
14985;DHT22;7588;62.368;25.902;2023-03-31T05:21:14;-14.00;99.90
14985;DHT22;7588;62.368;25.902;2023-03-31T05:23:41;-13.90;99.90
14985;DHT22;7588;62.368;25.902;2023-03-31T05:26:07;-13.70;99.90
14985;DHT22;7588;62.368;25.902;2023-03-31T05:28:33;-13.50;99.90
14985;DHT22;7588;62.368;25.902;2023-03-31T05:31:00;-13.40;99.90
14985;DHT22;7588;62.368;25.902;2023-03-31T05:33:26;-13.20;99.90
14985;DHT22;7588;62.368;25.902;2023-03-31T05:35:52;-13.10;99.90
14985;DHT22;7588;62.368;25.902;2023-03-31T05:38:18;-13.00;99.90
14985;DHT22;7588;62.368;25.902;2023-03-31T05:40:44;-12.90;99.90
14985;DHT22;7588;62.368;25.902;2023-03-31T05:43:09;-12.70;99.90
14985;DHT22;7588;62.368;25.902;2023-03-31T05:45:35;-12.60;99.90
14985;DHT22;7588;62.368;25.902;2023-03-31T05:48:01;-12.40;99.90
14985;DHT22;7588;62.368;25.902;2023-03-31T05:50:26;-12.30;99.90
14985;DHT22;7588;62.368;25.902;2023-03-31T05:52:52;-12.10;99.90
14985;DHT22;7588;62.368;25.902;2023-03-31T05:55:17;-12.00;99.90
14985;DHT22;7588;62.368;25.902;2023-03-31T05:57:43;-11.80;99.90
14985;DHT22;7588;62.368;25.902;2023-03-31T06:00:10;-11.60;99.90
14985;DHT22;7588;62.368;25.902;2023-03-31T06:02:36;-11.50;99.90
14985;DHT22;7588;62.368;25.902;2023-03-31T06:05:02;-11.30;99.90
14985;DHT22;7588;62.368;25.902;2023-03-31T06:07:28;-11.20;99.90
14985;DHT22;7588;62.368;25.902;2023-03-31T06:09:54;-11.00;99.90
14985;DHT22;7588;62.368;25.902;2023-03-31T06:12:20;-10.80;99.90
14985;DHT22;7588;62.368;25.902;2023-03-31T06:14:45;-10.60;99.90
14985;DHT22;7588;62.368;25.902;2023-03-31T06:17:11;-10.40;99.90
14985;DHT22;7588;62.368;25.902;2023-03-31T06:19:37;-10.30;99.90
14985;DHT22;7588;62.368;25.902;2023-03-31T06:22:02;-10.00;99.90
14985;DHT22;7588;62.368;25.902;2023-03-31T06:24:28;-9.80;99.90
14985;DHT22;7588;62.368;25.902;2023-03-31T06:26:54;-9.60;99.90
14985;DHT22;7588;62.368;25.902;2023-03-31T06:29:20;-9.40;99.90
14985;DHT22;7588;62.368;25.902;2023-03-31T06:31:45;-9.00;99.90
14985;DHT22;7588;62.368;25.902;2023-03-31T06:34:11;-8.70;99.90
14985;DHT22;7588;62.368;25.902;2023-03-31T06:36:37;-8.50;99.90
14985;DHT22;7588;62.368;25.902;2023-03-31T06:39:02;-8.40;99.90
14985;DHT22;7588;62.368;25.902;2023-03-31T06:41:28;-8.20;99.90
14985;DHT22;7588;62.368;25.902;2023-03-31T06:43:54;-8.10;99.90
14985;DHT22;7588;62.368;25.902;2023-03-31T06:46:19;-7.90;99.90
14985;DHT22;7588;62.368;25.902;2023-03-31T06:48:45;-7.70;99.90
14985;DHT22;7588;62.368;25.902;2023-03-31T06:51:11;-7.40;99.90
14985;DHT22;7588;62.368;25.902;2023-03-31T06:53:37;-7.10;99.90
14985;DHT22;7588;62.368;25.902;2023-03-31T06:56:04;-6.80;99.90
14985;DHT22;7588;62.368;25.902;2023-03-31T06:58:30;-6.50;99.90
14985;DHT22;7588;62.368;25.902;2023-03-31T07:00:56;-6.40;99.90
14985;DHT22;7588;62.368;25.902;2023-03-31T07:03:22;-6.20;99.90
14985;DHT22;7588;62.368;25.902;2023-03-31T07:05:50;-6.00;99.90
14985;DHT22;7588;62.368;25.902;2023-03-31T07:08:16;-5.80;99.90
14985;DHT22;7588;62.368;25.902;2023-03-31T07:10:42;-5.30;99.90
14985;DHT22;7588;62.368;25.902;2023-03-31T07:13:12;-4.30;99.90
14985;DHT22;7588;62.368;25.902;2023-03-31T07:15:37;-3.00;99.90
14985;DHT22;7588;62.368;25.902;2023-03-31T07:18:03;-1.90;99.90
14985;DHT22;7588;62.368;25.902;2023-03-31T07:20:29;-1.10;99.10
14985;DHT22;7588;62.368;25.902;2023-03-31T07:22:55;-0.60;97.10
14985;DHT22;7588;62.368;25.902;2023-03-31T07:25:21;0.10;95.40
14985;DHT22;7588;62.368;25.902;2023-03-31T07:27:47;0.40;94.20
14985;DHT22;7588;62.368;25.902;2023-03-31T07:30:15;0.50;93.80
14985;DHT22;7588;62.368;25.902;2023-03-31T07:32:42;0.90;92.50
14985;DHT22;7588;62.368;25.902;2023-03-31T07:35:09;0.50;93.90
14985;DHT22;7588;62.368;25.902;2023-03-31T07:37:39;0.20;94.90
14985;DHT22;7588;62.368;25.902;2023-03-31T07:40:07;-0.10;96.20
14985;DHT22;7588;62.368;25.902;2023-03-31T07:42:33;-0.10;96.80
14985;DHT22;7588;62.368;25.902;2023-03-31T07:45:00;-0.20;96.40
14985;DHT22;7588;62.368;25.902;2023-03-31T07:47:26;-0.20;96.40
14985;DHT22;7588;62.368;25.902;2023-03-31T07:49:52;-0.30;96.90
14985;DHT22;7588;62.368;25.902;2023-03-31T07:52:18;-0.20;97.50
14985;DHT22;7588;62.368;25.902;2023-03-31T07:54:45;0.00;98.10
14985;DHT22;7588;62.368;25.902;2023-03-31T07:57:11;0.10;97.30
14985;DHT22;7588;62.368;25.902;2023-03-31T07:59:37;0.40;96.60
14985;DHT22;7588;62.368;25.902;2023-03-31T08:02:02;0.60;96.70
14985;DHT22;7588;62.368;25.902;2023-03-31T08:04:28;0.50;95.90
14985;DHT22;7588;62.368;25.902;2023-03-31T08:06:54;0.30;95.80
14985;DHT22;7588;62.368;25.902;2023-03-31T08:09:20;0.30;97.30
14985;DHT22;7588;62.368;25.902;2023-03-31T08:11:47;0.70;97.50
14985;DHT22;7588;62.368;25.902;2023-03-31T08:14:13;0.90;96.00
14985;DHT22;7588;62.368;25.902;2023-03-31T08:16:39;0.60;96.40
14985;DHT22;7588;62.368;25.902;2023-03-31T08:19:05;0.40;97.30
14985;DHT22;7588;62.368;25.902;2023-03-31T08:21:31;0.40;97.30
14985;DHT22;7588;62.368;25.902;2023-03-31T08:23:57;0.40;97.20
14985;DHT22;7588;62.368;25.902;2023-03-31T08:26:23;-0.10;97.90
14985;DHT22;7588;62.368;25.902;2023-03-31T08:28:50;0.20;98.20
14985;DHT22;7588;62.368;25.902;2023-03-31T08:31:19;0.50;98.30
14985;DHT22;7588;62.368;25.902;2023-03-31T08:33:45;1.00;96.50
14985;DHT22;7588;62.368;25.902;2023-03-31T08:36:12;1.00;97.50
14985;DHT22;7588;62.368;25.902;2023-03-31T08:38:42;1.20;95.90
14985;DHT22;7588;62.368;25.902;2023-03-31T08:46:46;1.50;95.40
14985;DHT22;7588;62.368;25.902;2023-03-31T08:49:15;1.60;95.10
14985;DHT22;7588;62.368;25.902;2023-03-31T08:51:51;1.70;94.90
14985;DHT22;7588;62.368;25.902;2023-03-31T08:54:40;1.80;93.40
14985;DHT22;7588;62.368;25.902;2023-03-31T08:57:17;1.90;94.10
14985;DHT22;7588;62.368;25.902;2023-03-31T08:59:45;2.20;93.90
14985;DHT22;7588;62.368;25.902;2023-03-31T09:18:37;1.70;90.70
14985;DHT22;7588;62.368;25.902;2023-03-31T09:21:25;2.00;92.00
14985;DHT22;7588;62.368;25.902;2023-03-31T09:26:35;3.10;89.40
14985;DHT22;7588;62.368;25.902;2023-03-31T09:29:06;3.10;82.70
14985;DHT22;7588;62.368;25.902;2023-03-31T09:31:35;2.80;82.90
14985;DHT22;7588;62.368;25.902;2023-03-31T09:34:13;2.30;82.50
14985;DHT22;7588;62.368;25.902;2023-03-31T09:36:39;2.40;86.80
14985;DHT22;7588;62.368;25.902;2023-03-31T09:39:05;2.50;83.80
14985;DHT22;7588;62.368;25.902;2023-03-31T09:41:31;2.40;86.30
14985;DHT22;7588;62.368;25.902;2023-03-31T09:43:56;2.40;84.50
14985;DHT22;7588;62.368;25.902;2023-03-31T09:49:03;3.10;80.10
14985;DHT22;7588;62.368;25.902;2023-03-31T09:51:33;3.10;82.00
14985;DHT22;7588;62.368;25.902;2023-03-31T09:56:45;2.90;81.90
14985;DHT22;7588;62.368;25.902;2023-03-31T09:59:20;3.10;80.00
14985;DHT22;7588;62.368;25.902;2023-03-31T10:01:49;3.00;80.90
14985;DHT22;7588;62.368;25.902;2023-03-31T10:04:23;2.90;80.00
14985;DHT22;7588;62.368;25.902;2023-03-31T10:06:50;2.80;79.60
14985;DHT22;7588;62.368;25.902;2023-03-31T10:09:20;3.10;82.70
14985;DHT22;7588;62.368;25.902;2023-03-31T10:12:16;3.50;81.10
14985;DHT22;7588;62.368;25.902;2023-03-31T10:14:49;3.40;80.20
14985;DHT22;7588;62.368;25.902;2023-03-31T10:17:20;3.40;84.70
14985;DHT22;7588;62.368;25.902;2023-03-31T10:20:03;3.60;79.50
14985;DHT22;7588;62.368;25.902;2023-03-31T10:22:33;3.80;79.40
14985;DHT22;7588;62.368;25.902;2023-03-31T10:25:20;3.90;79.70
14985;DHT22;7588;62.368;25.902;2023-03-31T10:27:51;4.00;78.40
14985;DHT22;7588;62.368;25.902;2023-03-31T10:30:23;4.00;79.30
14985;DHT22;7588;62.368;25.902;2023-03-31T10:32:50;3.90;79.20
14985;DHT22;7588;62.368;25.902;2023-03-31T10:35:26;3.80;78.00
14985;DHT22;7588;62.368;25.902;2023-03-31T10:38:01;4.00;81.20
14985;DHT22;7588;62.368;25.902;2023-03-31T10:40:29;4.60;74.00
14985;DHT22;7588;62.368;25.902;2023-03-31T10:45:56;4.30;76.00
14985;DHT22;7588;62.368;25.902;2023-03-31T10:48:42;4.40;74.30
14985;DHT22;7588;62.368;25.902;2023-03-31T10:53:49;4.40;76.00
14985;DHT22;7588;62.368;25.902;2023-03-31T11:08:32;4.30;77.20
14985;DHT22;7588;62.368;25.902;2023-03-31T11:14:00;4.90;73.70
14985;DHT22;7588;62.368;25.902;2023-03-31T11:21:55;6.50;67.30
14985;DHT22;7588;62.368;25.902;2023-03-31T11:37:54;5.10;68.50
14985;DHT22;7588;62.368;25.902;2023-03-31T11:40:56;5.80;66.20
14985;DHT22;7588;62.368;25.902;2023-03-31T11:46:19;5.50;65.70
14985;DHT22;7588;62.368;25.902;2023-03-31T11:48:59;5.80;64.70
14985;DHT22;7588;62.368;25.902;2023-03-31T11:51:31;5.80;66.10
14985;DHT22;7588;62.368;25.902;2023-03-31T11:54:03;5.60;64.00
14985;DHT22;7588;62.368;25.902;2023-03-31T11:56:38;5.60;64.90
14985;DHT22;7588;62.368;25.902;2023-03-31T11:59:05;5.70;66.00
14985;DHT22;7588;62.368;25.902;2023-03-31T12:04:47;6.00;65.90
14985;DHT22;7588;62.368;25.902;2023-03-31T12:07:30;6.60;60.60
14985;DHT22;7588;62.368;25.902;2023-03-31T12:10:04;6.90;59.90
14985;DHT22;7588;62.368;25.902;2023-03-31T12:12:42;6.40;63.70
14985;DHT22;7588;62.368;25.902;2023-03-31T12:17:44;7.20;61.30
14985;DHT22;7588;62.368;25.902;2023-03-31T12:20:28;7.50;61.30
14985;DHT22;7588;62.368;25.902;2023-03-31T12:22:57;7.30;57.20
14985;DHT22;7588;62.368;25.902;2023-03-31T12:25:23;6.90;62.10
14985;DHT22;7588;62.368;25.902;2023-03-31T12:27:51;6.90;61.40
14985;DHT22;7588;62.368;25.902;2023-03-31T12:30:29;7.00;58.70
14985;DHT22;7588;62.368;25.902;2023-03-31T12:33:00;7.10;58.10
14985;DHT22;7588;62.368;25.902;2023-03-31T12:40:37;6.60;59.00
14985;DHT22;7588;62.368;25.902;2023-03-31T12:43:17;6.70;60.90
14985;DHT22;7588;62.368;25.902;2023-03-31T12:46:08;6.30;57.90
14985;DHT22;7588;62.368;25.902;2023-03-31T12:48:47;6.10;61.90
14985;DHT22;7588;62.368;25.902;2023-03-31T12:51:43;6.50;61.00
14985;DHT22;7588;62.368;25.902;2023-03-31T12:54:52;6.40;58.10
14985;DHT22;7588;62.368;25.902;2023-03-31T12:57:24;6.90;58.70
14985;DHT22;7588;62.368;25.902;2023-03-31T13:02:36;6.50;58.90
14985;DHT22;7588;62.368;25.902;2023-03-31T13:08:05;6.50;59.80
14985;DHT22;7588;62.368;25.902;2023-03-31T13:10:32;6.80;58.50
14985;DHT22;7588;62.368;25.902;2023-03-31T13:13:13;6.70;58.40
14985;DHT22;7588;62.368;25.902;2023-03-31T13:15:39;6.60;57.50
14985;DHT22;7588;62.368;25.902;2023-03-31T13:18:06;6.40;57.70
14985;DHT22;7588;62.368;25.902;2023-03-31T13:31:00;4.30;61.40
14985;DHT22;7588;62.368;25.902;2023-03-31T13:33:38;3.90;64.60
14985;DHT22;7588;62.368;25.902;2023-03-31T14:09:57;2.50;73.80
14985;DHT22;7588;62.368;25.902;2023-03-31T14:14:56;2.40;71.50
14985;DHT22;7588;62.368;25.902;2023-03-31T14:17:35;2.40;70.80
14985;DHT22;7588;62.368;25.902;2023-03-31T14:20:05;2.50;72.00
14985;DHT22;7588;62.368;25.902;2023-03-31T14:22:47;2.50;71.90
14985;DHT22;7588;62.368;25.902;2023-03-31T14:30:54;2.20;75.30
14985;DHT22;7588;62.368;25.902;2023-03-31T14:33:47;2.20;77.30
14985;DHT22;7588;62.368;25.902;2023-03-31T14:39:04;2.40;75.60
14985;DHT22;7588;62.368;25.902;2023-03-31T14:41:32;2.30;71.90
14985;DHT22;7588;62.368;25.902;2023-03-31T14:44:00;2.40;71.90
14985;DHT22;7588;62.368;25.902;2023-03-31T14:46:30;2.20;75.90
14985;DHT22;7588;62.368;25.902;2023-03-31T14:49:17;2.10;75.60
14985;DHT22;7588;62.368;25.902;2023-03-31T14:51:44;1.90;74.50
14985;DHT22;7588;62.368;25.902;2023-03-31T14:54:18;1.90;76.10
14985;DHT22;7588;62.368;25.902;2023-03-31T14:56:53;1.90;74.20
14985;DHT22;7588;62.368;25.902;2023-03-31T14:59:26;2.00;78.20
14985;DHT22;7588;62.368;25.902;2023-03-31T15:01:55;2.00;79.40
14985;DHT22;7588;62.368;25.902;2023-03-31T15:04:25;2.00;76.10
14985;DHT22;7588;62.368;25.902;2023-03-31T15:06:52;2.10;75.30
14985;DHT22;7588;62.368;25.902;2023-03-31T15:09:25;2.20;77.00
14985;DHT22;7588;62.368;25.902;2023-03-31T15:12:07;2.10;76.50
14985;DHT22;7588;62.368;25.902;2023-03-31T15:14:45;2.10;73.90
14985;DHT22;7588;62.368;25.902;2023-03-31T15:17:28;2.10;77.30
14985;DHT22;7588;62.368;25.902;2023-03-31T15:19:56;2.10;78.60
14985;DHT22;7588;62.368;25.902;2023-03-31T15:22:25;2.00;80.80
14985;DHT22;7588;62.368;25.902;2023-03-31T15:24:52;2.00;80.20
14985;DHT22;7588;62.368;25.902;2023-03-31T15:29:52;1.90;78.70
14985;DHT22;7588;62.368;25.902;2023-03-31T15:32:29;1.80;77.40
14985;DHT22;7588;62.368;25.902;2023-03-31T15:34:56;1.80;80.80
14985;DHT22;7588;62.368;25.902;2023-03-31T15:37:31;2.00;80.50
14985;DHT22;7588;62.368;25.902;2023-03-31T15:39:59;2.20;76.80
14985;DHT22;7588;62.368;25.902;2023-03-31T15:42:27;2.40;75.60
14985;DHT22;7588;62.368;25.902;2023-03-31T15:44:56;2.40;78.80
14985;DHT22;7588;62.368;25.902;2023-03-31T15:47:29;2.30;77.50
14985;DHT22;7588;62.368;25.902;2023-03-31T15:50:07;2.20;78.20
14985;DHT22;7588;62.368;25.902;2023-03-31T15:52:44;2.10;76.00
14985;DHT22;7588;62.368;25.902;2023-03-31T15:55:38;2.00;77.60
14985;DHT22;7588;62.368;25.902;2023-03-31T15:58:05;1.60;80.90
14985;DHT22;7588;62.368;25.902;2023-03-31T16:03:04;1.00;84.50
14985;DHT22;7588;62.368;25.902;2023-03-31T16:05:41;0.70;90.20
14985;DHT22;7588;62.368;25.902;2023-03-31T16:08:14;0.50;91.90
14985;DHT22;7588;62.368;25.902;2023-03-31T16:10:41;0.20;93.00
14985;DHT22;7588;62.368;25.902;2023-03-31T16:13:09;-0.10;94.60
14985;DHT22;7588;62.368;25.902;2023-03-31T16:15:43;-0.30;95.40
14985;DHT22;7588;62.368;25.902;2023-03-31T16:18:22;-0.40;93.70
14985;DHT22;7588;62.368;25.902;2023-03-31T16:20:56;-0.40;94.60
14985;DHT22;7588;62.368;25.902;2023-03-31T16:23:26;-0.60;95.70
14985;DHT22;7588;62.368;25.902;2023-03-31T16:25:52;-0.80;98.20
14985;DHT22;7588;62.368;25.902;2023-03-31T16:28:25;-1.10;99.60
14985;DHT22;7588;62.368;25.902;2023-03-31T16:30:51;-1.30;98.90
14985;DHT22;7588;62.368;25.902;2023-03-31T16:33:19;-1.50;99.30
14985;DHT22;7588;62.368;25.902;2023-03-31T16:35:50;-1.70;99.90
14985;DHT22;7588;62.368;25.902;2023-03-31T16:38:20;-1.80;99.90
14985;DHT22;7588;62.368;25.902;2023-03-31T16:40:51;-1.90;99.90
14985;DHT22;7588;62.368;25.902;2023-03-31T16:43:24;-2.00;99.90
14985;DHT22;7588;62.368;25.902;2023-03-31T16:45:52;-2.10;99.90
14985;DHT22;7588;62.368;25.902;2023-03-31T16:48:19;-2.20;99.90
14985;DHT22;7588;62.368;25.902;2023-03-31T16:50:47;-2.30;99.90
14985;DHT22;7588;62.368;25.902;2023-03-31T16:53:16;-2.30;99.90
14985;DHT22;7588;62.368;25.902;2023-03-31T16:55:43;-2.30;99.90
14985;DHT22;7588;62.368;25.902;2023-03-31T16:58:09;-2.30;99.90
14985;DHT22;7588;62.368;25.902;2023-03-31T17:00:35;-2.30;99.90
14985;DHT22;7588;62.368;25.902;2023-03-31T17:03:03;-2.50;99.90
14985;DHT22;7588;62.368;25.902;2023-03-31T17:05:30;-2.70;99.90
14985;DHT22;7588;62.368;25.902;2023-03-31T17:07:57;-2.70;99.90
14985;DHT22;7588;62.368;25.902;2023-03-31T17:10:23;-2.80;99.90
14985;DHT22;7588;62.368;25.902;2023-03-31T17:12:49;-3.10;99.90
14985;DHT22;7588;62.368;25.902;2023-03-31T17:15:15;-3.20;99.90
14985;DHT22;7588;62.368;25.902;2023-03-31T17:17:41;-3.40;99.90
14985;DHT22;7588;62.368;25.902;2023-03-31T17:20:08;-3.50;99.90
14985;DHT22;7588;62.368;25.902;2023-03-31T17:22:35;-3.60;99.90
14985;DHT22;7588;62.368;25.902;2023-03-31T17:25:01;-3.70;99.90
14985;DHT22;7588;62.368;25.902;2023-03-31T17:27:28;-3.80;99.90
14985;DHT22;7588;62.368;25.902;2023-03-31T17:29:54;-3.90;99.90
14985;DHT22;7588;62.368;25.902;2023-03-31T17:32:20;-4.00;99.90
14985;DHT22;7588;62.368;25.902;2023-03-31T17:34:47;-4.10;99.90
14985;DHT22;7588;62.368;25.902;2023-03-31T17:37:16;-4.20;99.90
14985;DHT22;7588;62.368;25.902;2023-03-31T17:39:43;-4.20;99.90
14985;DHT22;7588;62.368;25.902;2023-03-31T17:42:10;-4.30;99.90
14985;DHT22;7588;62.368;25.902;2023-03-31T17:44:36;-4.40;99.90
14985;DHT22;7588;62.368;25.902;2023-03-31T17:47:02;-4.40;99.90
14985;DHT22;7588;62.368;25.902;2023-03-31T17:49:27;-4.40;99.90
14985;DHT22;7588;62.368;25.902;2023-03-31T17:51:53;-4.50;99.90
14985;DHT22;7588;62.368;25.902;2023-03-31T17:54:19;-4.60;99.90
14985;DHT22;7588;62.368;25.902;2023-03-31T17:56:45;-4.70;99.90
14985;DHT22;7588;62.368;25.902;2023-03-31T17:59:14;-4.80;99.90
14985;DHT22;7588;62.368;25.902;2023-03-31T18:01:40;-4.90;99.90
14985;DHT22;7588;62.368;25.902;2023-03-31T18:04:06;-4.90;99.90
14985;DHT22;7588;62.368;25.902;2023-03-31T18:06:32;-5.10;99.90
14985;DHT22;7588;62.368;25.902;2023-03-31T18:08:58;-5.10;99.90
14985;DHT22;7588;62.368;25.902;2023-03-31T18:11:25;-5.20;99.90
14985;DHT22;7588;62.368;25.902;2023-03-31T18:13:51;-5.30;99.90
14985;DHT22;7588;62.368;25.902;2023-03-31T18:16:17;-5.30;99.90
14985;DHT22;7588;62.368;25.902;2023-03-31T18:18:43;-5.40;99.90
14985;DHT22;7588;62.368;25.902;2023-03-31T18:21:11;-5.40;99.90
14985;DHT22;7588;62.368;25.902;2023-03-31T18:23:38;-5.50;99.90
14985;DHT22;7588;62.368;25.902;2023-03-31T18:26:11;-5.50;99.90
14985;DHT22;7588;62.368;25.902;2023-03-31T18:28:37;-5.60;99.90
14985;DHT22;7588;62.368;25.902;2023-03-31T18:31:06;-5.70;99.90
14985;DHT22;7588;62.368;25.902;2023-03-31T18:33:32;-5.80;99.90
14985;DHT22;7588;62.368;25.902;2023-03-31T18:35:58;-5.80;99.90
14985;DHT22;7588;62.368;25.902;2023-03-31T18:38:25;-5.80;99.90
14985;DHT22;7588;62.368;25.902;2023-03-31T18:40:51;-5.90;99.90
14985;DHT22;7588;62.368;25.902;2023-03-31T18:43:18;-6.00;99.90
14985;DHT22;7588;62.368;25.902;2023-03-31T18:45:51;-6.00;99.90
14985;DHT22;7588;62.368;25.902;2023-03-31T18:48:18;-6.10;99.90
14985;DHT22;7588;62.368;25.902;2023-03-31T18:50:47;-6.20;99.90
14985;DHT22;7588;62.368;25.902;2023-03-31T18:53:13;-6.30;99.90
14985;DHT22;7588;62.368;25.902;2023-03-31T18:55:47;-6.30;99.90
14985;DHT22;7588;62.368;25.902;2023-03-31T18:58:13;-6.30;99.90
14985;DHT22;7588;62.368;25.902;2023-03-31T19:00:39;-6.40;99.90
14985;DHT22;7588;62.368;25.902;2023-03-31T19:03:05;-6.40;99.90
14985;DHT22;7588;62.368;25.902;2023-03-31T19:05:32;-6.40;99.90